createdAt,value
2019-04-06T00:00:37.554Z,61.87
2019-04-06T00:03:07.602Z,65.77
2019-04-06T00:05:36.893Z,68.13
2019-04-06T00:08:07.569Z,59.33
2019-04-06T00:10:36.787Z,56.50
2019-04-06T00:13:06.365Z,62.67
2019-04-06T00:15:36.123Z,54.70
2019-04-06T00:18:05.965Z,56.17
2019-04-06T00:20:35.763Z,57.33
2019-04-06T00:23:05.424Z,54.07
2019-04-06T00:25:43.766Z,54.30
2019-04-06T00:28:07.252Z,58.17
2019-04-06T00:30:51.729Z,53.93
2019-04-06T00:33:21.084Z,58.37
2019-04-06T00:35:50.691Z,57.80
2019-04-06T00:38:19.983Z,49.33
2019-04-06T00:40:49.629Z,59.97
2019-04-06T00:43:19.851Z,50.83
2019-04-06T00:45:48.999Z,55.60
2019-04-06T00:48:18.599Z,50.80
2019-04-06T00:50:48.352Z,54.23
2019-04-06T00:53:18.035Z,52.10
2019-04-06T00:55:55.634Z,51.43
2019-04-06T00:58:19.186Z,53.07
2019-04-06T01:00:48.955Z,50.83
2019-04-06T01:03:18.998Z,56.00
2019-04-06T01:05:48.510Z,50.40
2019-04-06T01:08:18.825Z,55.97
2019-04-06T01:10:48.438Z,57.53
2019-04-06T01:13:18.183Z,46.60
2019-04-06T01:15:47.919Z,55.47
2019-04-06T01:18:17.155Z,58.17
2019-04-06T01:20:46.840Z,55.10
2019-04-06T01:23:16.689Z,50.83
2019-04-06T01:25:46.482Z,53.23
2019-04-06T01:28:16.252Z,46.63
2019-04-06T01:30:45.929Z,47.70
2019-04-06T01:33:16.811Z,46.47
2019-04-06T01:35:46.465Z,45.60
2019-04-06T01:38:16.251Z,45.37
2019-04-06T01:40:45.959Z,49.70
2019-04-06T01:43:15.671Z,49.67
2019-04-06T01:45:44.978Z,46.97
2019-04-06T01:48:14.159Z,43.83
2019-04-06T01:50:43.803Z,45.30
2019-04-06T01:53:13.567Z,49.23
2019-04-06T01:55:43.241Z,50.57
2019-04-06T01:58:13.099Z,44.67
2019-04-06T02:00:56.347Z,49.87
2019-04-06T02:03:26.029Z,49.90
2019-04-06T02:05:55.702Z,48.30
2019-04-06T02:08:25.124Z,46.23
2019-04-06T02:10:54.230Z,40.30
2019-04-06T02:13:23.832Z,47.80
2019-04-06T02:15:53.119Z,46.87
2019-04-06T02:18:22.697Z,44.80
2019-04-06T02:20:52.454Z,44.07
2019-04-06T02:23:22.217Z,46.87
2019-04-06T02:25:51.458Z,46.13
2019-04-06T02:28:21.075Z,52.07
2019-04-06T02:31:13.475Z,44.90
2019-04-06T02:34:08.294Z,48.77
2019-04-06T02:36:45.937Z,45.37
2019-04-06T02:39:32.313Z,50.90
2019-04-06T02:42:15.345Z,46.30
2019-04-06T02:44:44.642Z,45.83
2019-04-06T02:47:14.296Z,48.00
2019-04-06T02:49:43.638Z,43.83
2019-04-06T02:52:13.330Z,47.63
2019-04-06T02:54:43.182Z,45.00
2019-04-06T02:57:12.983Z,49.70
2019-04-06T02:59:42.365Z,48.23
2019-04-06T03:02:12.212Z,51.83
2019-04-06T03:04:42.081Z,50.23
2019-04-06T03:07:12.086Z,48.40
2019-04-06T03:09:42.090Z,47.10
2019-04-06T03:12:12.367Z,53.33
2019-04-06T03:14:44.583Z,47.47
2019-04-06T03:17:12.976Z,46.27
2019-04-06T03:19:42.140Z,55.87
2019-04-06T03:22:11.839Z,52.37
2019-04-06T03:24:41.621Z,52.00
2019-04-06T03:27:10.963Z,48.93
2019-04-06T03:29:40.590Z,52.67
2019-04-06T03:32:10.270Z,46.30
2019-04-06T03:34:40.024Z,48.27
2019-04-06T03:37:09.759Z,54.10
2019-04-06T03:39:39.486Z,52.20
2019-04-06T03:42:10.798Z,55.20
2019-04-06T03:44:39.999Z,51.07
2019-04-06T03:47:09.212Z,48.47
2019-04-06T03:49:39.436Z,53.13
2019-04-06T03:52:08.585Z,54.20
2019-04-06T03:54:38.360Z,51.27
2019-04-06T03:57:14.358Z,48.83
2019-04-06T03:59:39.659Z,51.00
2019-04-06T04:02:09.011Z,52.30
2019-04-06T04:04:38.177Z,50.43
2019-04-06T04:07:07.734Z,50.63
2019-04-06T04:09:36.941Z,50.10
2019-04-06T04:12:06.530Z,49.13
2019-04-06T04:14:36.229Z,51.27
2019-04-06T04:17:06.091Z,54.53
2019-04-06T04:19:35.883Z,56.03
2019-04-06T04:22:05.617Z,56.60
2019-04-06T04:24:35.339Z,51.93
2019-04-06T04:27:04.580Z,55.50
2019-04-06T04:29:34.208Z,50.90
2019-04-06T04:32:04.253Z,51.90
2019-04-06T04:34:33.546Z,54.17
2019-04-06T04:37:02.710Z,52.97
2019-04-06T04:39:32.509Z,50.23
2019-04-06T04:42:02.434Z,51.23
2019-04-06T04:44:31.851Z,54.40
2019-04-06T04:47:00.996Z,55.80
2019-04-06T04:49:30.537Z,54.27
2019-04-06T04:52:00.222Z,55.13
2019-04-06T04:54:29.897Z,57.10
2019-04-06T04:56:59.627Z,59.90
2019-04-06T04:59:29.336Z,53.40
2019-04-06T05:01:58.982Z,56.03
2019-04-06T05:04:28.631Z,48.57
2019-04-06T05:06:58.295Z,48.50
2019-04-06T05:09:27.970Z,55.57
2019-04-06T05:11:57.641Z,54.40
2019-04-06T05:14:45.214Z,50.03
2019-04-06T05:17:14.820Z,61.83
2019-04-06T05:19:44.555Z,56.33
2019-04-06T05:22:14.279Z,53.97
2019-04-06T05:24:43.954Z,53.60
2019-04-06T05:27:14.012Z,56.23
2019-04-06T05:29:43.672Z,48.70
2019-04-06T05:32:13.136Z,54.13
2019-04-06T05:34:44.074Z,54.70
2019-04-06T05:37:13.978Z,52.37
2019-04-06T05:39:43.414Z,50.13
2019-04-06T05:42:13.078Z,57.80
2019-04-06T05:44:42.301Z,48.83
2019-04-06T05:47:11.854Z,49.33
2019-04-06T05:49:41.093Z,46.93
2019-04-06T05:52:10.680Z,47.50
2019-04-06T05:54:40.329Z,43.53
2019-04-06T05:57:10.175Z,39.83
2019-04-06T05:59:40.941Z,39.53
2019-04-06T06:02:10.779Z,39.23
2019-04-06T06:04:41.087Z,47.60
2019-04-06T06:07:10.691Z,46.80
2019-04-06T06:09:39.955Z,40.87
2019-04-06T06:12:12.480Z,37.23
2019-04-06T06:14:42.539Z,43.43
2019-04-06T06:17:14.180Z,46.07
2019-04-06T06:19:42.985Z,43.93
2019-04-06T06:22:13.876Z,42.10
2019-04-06T06:24:43.985Z,39.10
2019-04-06T06:27:13.968Z,35.13
2019-04-06T06:29:43.697Z,42.10
2019-04-06T06:32:13.355Z,37.07
2019-04-06T06:34:43.310Z,39.53
2019-04-06T06:37:12.800Z,36.17
2019-04-06T06:39:42.460Z,34.80
2019-04-06T06:42:12.734Z,41.93
2019-04-06T06:44:42.117Z,38.67
2019-04-06T06:47:11.491Z,36.83
2019-04-06T06:49:40.726Z,38.80
2019-04-06T06:52:09.995Z,39.73
2019-04-06T06:54:39.771Z,38.73
2019-04-06T06:57:09.584Z,40.30
2019-04-06T06:59:39.290Z,39.27
2019-04-06T07:02:09.203Z,40.40
2019-04-06T07:04:38.918Z,45.97
2019-04-06T07:07:08.317Z,47.57
2019-04-06T07:09:37.706Z,41.63
2019-04-06T07:12:06.922Z,45.47
2019-04-06T07:14:36.607Z,40.53
2019-04-06T07:17:06.418Z,47.17
2019-04-06T07:19:36.218Z,46.40
2019-04-06T07:22:05.958Z,42.63
2019-04-06T07:24:35.658Z,44.87
2019-04-06T07:27:05.492Z,46.03
2019-04-06T07:29:35.177Z,40.63
2019-04-06T07:32:05.079Z,43.23
2019-04-06T07:34:34.514Z,45.03
2019-04-06T07:37:03.762Z,43.57
2019-04-06T07:39:33.461Z,47.70
2019-04-06T07:42:02.761Z,46.07
2019-04-06T07:44:33.895Z,41.90
2019-04-06T07:47:03.161Z,40.63
2019-04-06T07:49:32.800Z,37.23
2019-04-06T07:52:02.511Z,34.73
2019-04-06T07:54:32.203Z,40.83
2019-04-06T07:57:02.022Z,32.50
2019-04-06T07:59:31.682Z,43.73
2019-04-06T08:02:01.389Z,49.10
2019-04-06T08:04:31.248Z,36.83
2019-04-06T08:07:00.669Z,33.23
2019-04-06T08:09:30.301Z,31.93
2019-04-06T08:12:00.036Z,34.17
2019-04-06T08:14:29.816Z,35.53
2019-04-06T08:16:59.139Z,38.00
2019-04-06T08:19:28.837Z,32.90
2019-04-06T08:21:58.719Z,36.27
2019-04-06T08:24:28.269Z,38.70
2019-04-06T08:26:58.038Z,38.17
2019-04-06T08:29:27.973Z,33.27
2019-04-06T08:31:58.982Z,40.13
2019-04-06T08:34:28.259Z,35.43
2019-04-06T08:36:57.574Z,41.57
2019-04-06T08:39:26.833Z,38.40
2019-04-06T08:41:56.867Z,35.33
2019-04-06T08:44:26.844Z,38.90
2019-04-06T08:46:56.886Z,34.87
2019-04-06T08:49:26.759Z,36.60
2019-04-06T08:51:56.143Z,37.10
2019-04-06T08:54:26.730Z,43.53
2019-04-06T08:56:55.937Z,40.53
2019-04-06T08:59:27.480Z,39.07
2019-04-06T09:01:57.048Z,38.70
2019-04-06T09:04:27.048Z,40.20
2019-04-06T09:06:56.713Z,40.37
2019-04-06T09:09:25.932Z,43.90
2019-04-06T09:11:55.259Z,36.47
2019-04-06T09:14:24.512Z,37.30
2019-04-06T09:16:53.622Z,39.67
2019-04-06T09:19:23.175Z,38.40
2019-04-06T09:21:52.441Z,38.87
2019-04-06T09:24:21.677Z,36.87
2019-04-06T09:26:51.429Z,36.87
2019-04-06T09:29:24.100Z,35.93
2019-04-06T09:31:52.206Z,35.97
2019-04-06T09:34:22.057Z,44.07
2019-04-06T09:36:51.905Z,39.73
2019-04-06T09:39:21.753Z,37.03
2019-04-06T09:41:51.020Z,38.40
2019-04-06T09:44:52.084Z,42.43
2019-04-06T09:47:25.194Z,52.37
2019-04-06T09:50:07.086Z,57.37
2019-04-06T09:53:01.870Z,45.70
2019-04-06T09:55:40.243Z,46.93
2019-04-06T09:58:16.033Z,39.53
2019-04-06T10:01:04.678Z,46.17
2019-04-06T10:03:46.590Z,44.70
2019-04-06T10:06:40.061Z,45.73
2019-04-06T10:09:27.425Z,39.77
2019-04-06T10:12:14.531Z,44.27
2019-04-06T10:14:55.386Z,41.47
2019-04-06T10:17:36.273Z,41.10
2019-04-06T10:20:20.730Z,42.70
2019-04-06T10:23:15.639Z,42.00
2019-04-06T10:25:54.081Z,45.57
2019-04-06T10:28:41.791Z,45.10
2019-04-06T10:31:29.462Z,42.17
2019-04-06T10:34:16.698Z,38.67
2019-04-06T10:37:04.204Z,40.00
2019-04-06T10:39:38.720Z,46.43
2019-04-06T10:42:28.437Z,42.17
2019-04-06T10:45:18.247Z,42.67
2019-04-06T10:48:12.946Z,41.13
2019-04-06T10:51:13.150Z,42.00
2019-04-06T10:54:11.039Z,42.00
2019-04-06T10:56:56.838Z,55.10
2019-04-06T10:59:45.479Z,54.40
2019-04-06T11:02:33.111Z,44.13
2019-04-06T11:05:21.750Z,40.53
2019-04-06T11:07:56.317Z,41.67
2019-04-06T11:10:45.046Z,47.87
2019-04-06T11:13:35.500Z,44.10
2019-04-06T11:16:21.026Z,43.90
2019-04-06T11:19:09.012Z,42.80
2019-04-06T11:21:57.618Z,40.33
2019-04-06T11:24:56.256Z,39.43
2019-04-06T11:27:47.816Z,38.80
2019-04-06T11:30:34.873Z,39.63
2019-04-06T11:33:22.982Z,47.73
2019-04-06T11:36:07.840Z,43.73
2019-04-06T11:38:48.383Z,54.03
2019-04-06T11:41:28.777Z,42.30
2019-04-06T11:44:26.687Z,42.80
2019-04-06T11:47:18.575Z,38.83
2019-04-06T11:50:00.545Z,45.70
2019-04-06T11:52:39.915Z,41.07
2019-04-06T11:55:25.016Z,44.27
2019-04-06T11:58:04.666Z,44.30
2019-04-06T12:00:57.149Z,50.03
2019-04-06T12:03:37.449Z,41.50
2019-04-06T12:06:14.379Z,44.30
2019-04-06T12:09:06.076Z,45.73
2019-04-06T12:11:50.465Z,48.00
2019-04-06T12:14:26.401Z,44.63
2019-04-06T12:17:07.805Z,46.20
2019-04-06T12:20:03.118Z,49.30
2019-04-06T12:22:43.387Z,47.07
2019-04-06T12:25:37.657Z,45.40
2019-04-06T12:28:41.422Z,48.27
2019-04-06T12:31:30.257Z,49.53
2019-04-06T12:34:21.011Z,44.40
2019-04-06T12:36:59.485Z,47.03
2019-04-06T12:39:36.277Z,44.50
2019-04-06T12:42:25.021Z,46.47
2019-04-06T12:45:12.134Z,44.37
2019-04-06T12:47:59.786Z,42.20
2019-04-06T12:50:56.179Z,46.87
2019-04-06T12:53:40.029Z,42.27
2019-04-06T12:56:32.257Z,44.83
2019-04-06T12:59:21.374Z,43.97
2019-04-06T13:02:19.744Z,44.67
2019-04-06T13:05:02.738Z,44.87
2019-04-06T13:08:07.031Z,48.80
2019-04-06T13:10:54.332Z,45.57
2019-04-06T13:13:49.594Z,45.90
2019-04-06T13:16:42.251Z,48.83
2019-04-06T13:19:29.707Z,42.07
2019-04-06T13:22:17.327Z,47.33
2019-04-06T13:25:04.847Z,43.33
2019-04-06T13:27:40.049Z,43.47
2019-04-06T13:30:27.563Z,43.57
2019-04-06T13:33:18.722Z,49.47
2019-04-06T13:36:07.974Z,69.77
2019-04-06T13:38:57.408Z,38.83
2019-04-06T13:41:54.806Z,46.13
2019-04-06T13:44:47.020Z,40.80
2019-04-06T13:47:29.833Z,47.50
2019-04-06T13:50:10.991Z,42.07
2019-04-06T13:53:02.504Z,39.40
2019-04-06T13:55:58.463Z,42.13
2019-04-06T13:58:35.663Z,39.60
2019-04-06T14:01:23.124Z,40.03
2019-04-06T14:04:03.564Z,41.30
2019-04-06T14:07:00.338Z,37.73
2019-04-06T14:09:41.684Z,40.10
2019-04-06T14:12:30.536Z,36.43
2019-04-06T14:15:15.880Z,35.90
2019-04-06T14:18:10.354Z,44.07
2019-04-06T14:20:59.253Z,41.47
2019-04-06T14:23:59.660Z,37.23
2019-04-06T14:26:40.222Z,40.03
2019-04-06T14:29:38.152Z,38.20
2019-04-06T14:32:27.014Z,37.70
2019-04-06T14:35:10.613Z,33.37
2019-04-06T14:37:50.201Z,57.27
2019-04-06T14:40:38.236Z,41.90
2019-04-06T14:43:19.001Z,44.87
2019-04-06T14:46:16.685Z,40.03
2019-04-06T14:49:22.488Z,36.33
2019-04-06T14:52:04.537Z,44.43
2019-04-06T14:54:40.421Z,43.50
2019-04-06T14:57:16.855Z,38.67
2019-04-06T14:59:55.377Z,37.87
2019-04-06T15:02:31.759Z,35.67
2019-04-06T15:05:15.992Z,39.50
2019-04-06T15:07:56.928Z,51.73
2019-04-06T15:10:41.543Z,38.83
2019-04-06T15:13:21.840Z,45.77
2019-04-06T15:16:00.835Z,47.60
2019-04-06T15:18:48.030Z,48.30
2019-04-06T15:21:53.157Z,36.77
2019-04-06T15:24:28.541Z,43.23
2019-04-06T15:27:09.386Z,38.33
2019-04-06T15:30:10.479Z,36.87
2019-04-06T15:33:05.720Z,35.67
2019-04-06T15:35:54.503Z,41.97
2019-04-06T15:39:01.304Z,41.03
2019-04-06T15:41:54.653Z,38.43
2019-04-06T15:44:41.746Z,38.40
2019-04-06T15:47:30.695Z,39.20
2019-04-06T15:50:19.608Z,38.53
2019-04-06T15:52:54.790Z,37.20
2019-04-06T15:55:43.319Z,41.63
2019-04-06T15:58:21.839Z,40.73
2019-04-06T16:01:12.163Z,35.93
2019-04-06T16:03:52.618Z,43.77
2019-04-06T16:06:44.159Z,41.90
2019-04-06T16:09:26.241Z,37.77
2019-04-06T16:12:10.727Z,51.20
2019-04-06T16:14:49.644Z,43.67
2019-04-06T16:17:38.242Z,42.37
2019-04-06T16:20:27.911Z,42.87
2019-04-06T16:23:16.863Z,43.03
2019-04-06T16:26:04.237Z,43.10
2019-04-06T16:28:59.136Z,45.03
2019-04-06T16:31:46.657Z,44.83
2019-04-06T16:34:28.872Z,41.40
2019-04-06T16:37:10.078Z,44.87
2019-04-06T16:39:47.625Z,40.63
2019-04-06T16:42:34.846Z,40.17
2019-04-06T16:45:22.895Z,39.87
2019-04-06T16:48:11.031Z,40.87
2019-04-06T16:50:55.387Z,37.00
2019-04-06T16:53:42.776Z,44.00
2019-04-06T16:56:20.733Z,42.00
2019-04-06T16:58:55.555Z,45.60
2019-04-06T17:01:35.375Z,53.50
2019-04-06T17:04:33.134Z,52.20
2019-04-06T17:07:07.794Z,51.63
2019-04-06T17:10:05.370Z,46.07
2019-04-06T17:12:59.786Z,48.93
2019-04-06T17:15:36.603Z,52.07
2019-04-06T17:18:17.874Z,47.53
2019-04-06T17:21:12.929Z,48.70
2019-04-06T17:24:04.323Z,45.70
2019-04-06T17:26:59.243Z,55.53
2019-04-06T17:29:48.236Z,48.03
2019-04-06T17:32:43.705Z,48.97
2019-04-06T17:35:27.689Z,45.27
2019-04-06T17:38:02.749Z,44.03
2019-04-06T17:40:49.457Z,51.27
2019-04-06T17:43:40.786Z,67.03
2019-04-06T17:46:41.552Z,49.17
2019-04-06T17:49:24.799Z,49.53
2019-04-06T17:52:02.002Z,51.33
2019-04-06T17:54:45.954Z,45.30
2019-04-06T17:57:26.198Z,48.20
2019-04-06T18:00:10.853Z,46.00
2019-04-06T18:02:58.698Z,52.97
2019-04-06T18:05:59.739Z,50.93
2019-04-06T18:08:40.331Z,47.07
2019-04-06T18:11:31.783Z,48.27
2019-04-06T18:14:01.257Z,54.53
2019-04-06T18:16:34.004Z,52.13
2019-04-06T18:19:03.204Z,56.50
2019-04-06T18:21:32.752Z,67.00
2019-04-06T18:24:02.052Z,52.83
2019-04-06T18:26:31.269Z,49.17
2019-04-06T18:29:00.641Z,69.80
2019-04-06T18:31:52.628Z,48.53
2019-04-06T18:34:22.867Z,75.10
2019-04-06T18:37:30.239Z,48.30
2019-04-06T18:40:01.766Z,45.73
2019-04-06T18:42:32.444Z,51.23
2019-04-06T18:45:03.432Z,47.37
2019-04-06T18:47:32.730Z,46.27
2019-04-06T18:50:01.838Z,46.60
2019-04-06T18:52:31.756Z,50.00
2019-04-06T18:55:01.506Z,48.80
2019-04-06T18:57:32.792Z,43.77
2019-04-06T19:00:02.514Z,51.97
2019-04-06T19:02:32.232Z,94.13
2019-04-06T19:05:03.490Z,55.27
2019-04-06T19:07:33.813Z,50.30
2019-04-06T19:10:04.160Z,46.97
2019-04-06T19:12:33.626Z,61.70
2019-04-06T19:15:02.915Z,58.03
2019-04-06T19:17:32.038Z,48.67
2019-04-06T19:20:01.352Z,53.30
2019-04-06T19:22:30.482Z,54.33
2019-04-06T19:25:00.605Z,43.73
2019-04-06T19:27:30.944Z,48.77
2019-04-06T19:30:00.773Z,53.23
2019-04-06T19:32:30.578Z,55.40
2019-04-06T19:34:59.821Z,46.50
2019-04-06T19:37:28.987Z,47.63
2019-04-06T19:39:59.054Z,46.93
2019-04-06T19:42:28.798Z,54.23
2019-04-06T19:44:59.097Z,46.67
2019-04-06T19:47:28.810Z,46.47
2019-04-06T19:49:58.572Z,48.10
2019-04-06T19:52:28.376Z,54.30
2019-04-06T19:54:58.642Z,48.50
2019-04-06T19:57:28.797Z,45.90
2019-04-06T19:59:58.582Z,46.67
2019-04-06T20:02:28.717Z,49.00
2019-04-06T20:04:59.105Z,55.83
2019-04-06T20:07:28.709Z,49.73
2019-04-06T20:09:58.566Z,48.33
2019-04-06T20:12:28.354Z,51.97
2019-04-06T20:14:57.572Z,46.53
2019-04-06T20:17:28.808Z,49.97
2019-04-06T20:19:58.598Z,74.80
2019-04-06T20:22:28.505Z,82.67
2019-04-06T20:24:58.860Z,63.83
2019-04-06T20:27:29.050Z,69.40
2019-04-06T20:29:58.833Z,69.50
2019-04-06T20:32:29.002Z,56.20
2019-04-06T20:34:58.769Z,53.43
2019-04-06T20:37:28.494Z,62.60
2019-04-06T20:39:58.267Z,56.00
2019-04-06T20:42:28.139Z,56.77
2019-04-06T20:44:58.091Z,55.73
2019-04-06T20:47:28.875Z,54.90
2019-04-06T20:49:58.236Z,50.33
2019-04-06T20:52:27.951Z,49.40
2019-04-06T20:54:58.106Z,50.87
2019-04-06T20:57:28.372Z,47.67
2019-04-06T20:59:58.149Z,54.87
2019-04-06T21:02:27.758Z,52.33
2019-04-06T21:04:56.939Z,49.07
2019-04-06T21:07:26.483Z,49.10
2019-04-06T21:09:56.230Z,52.07
2019-04-06T21:12:25.471Z,53.63
2019-04-06T21:14:54.593Z,52.87
2019-04-06T21:17:24.355Z,51.80
2019-04-06T21:19:54.182Z,53.17
2019-04-06T21:22:23.915Z,53.77
2019-04-06T21:24:53.754Z,58.63
2019-04-06T21:27:23.059Z,56.27
2019-04-06T21:29:52.872Z,52.37
2019-04-06T21:32:22.722Z,56.33
2019-04-06T21:34:52.498Z,55.67
2019-04-06T21:37:23.093Z,54.70
2019-04-06T21:39:55.308Z,48.77
2019-04-06T21:42:24.584Z,53.30
2019-04-06T21:44:53.838Z,56.07
2019-04-06T21:47:23.190Z,47.57
2019-04-06T21:49:52.928Z,47.50
2019-04-06T21:52:22.623Z,49.30
2019-04-06T21:54:51.973Z,53.30
2019-04-06T21:57:21.817Z,53.70
2019-04-06T21:59:51.685Z,52.90
2019-04-06T22:02:24.633Z,51.40
2019-04-06T22:04:54.551Z,52.73
2019-04-06T22:07:24.275Z,57.57
2019-04-06T22:09:54.802Z,56.63
2019-04-06T22:12:25.047Z,49.97
2019-04-06T22:14:54.450Z,51.00
2019-04-06T22:17:24.679Z,52.23
2019-04-06T22:19:54.246Z,54.50
2019-04-06T22:22:23.989Z,51.87
2019-04-06T22:24:53.263Z,53.37
2019-04-06T22:27:22.726Z,54.93
2019-04-06T22:29:52.356Z,58.43
2019-04-06T22:32:22.301Z,57.13
2019-04-06T22:34:52.067Z,55.33
2019-04-06T22:37:21.895Z,52.67
2019-04-06T22:39:51.254Z,55.17
2019-04-06T22:42:20.491Z,52.53
2019-04-06T22:44:50.151Z,48.27
2019-04-06T22:47:19.988Z,53.27
2019-04-06T22:49:49.872Z,54.73
2019-04-06T22:52:19.319Z,51.60
2019-04-06T22:54:49.137Z,55.87
2019-04-06T22:57:18.910Z,56.60
2019-04-06T22:59:49.768Z,51.20
2019-04-06T23:02:19.627Z,52.57
2019-04-06T23:05:11.873Z,54.93
2019-04-06T23:07:44.023Z,54.80
2019-04-06T23:10:14.527Z,58.97
2019-04-06T23:12:44.829Z,56.00
2019-04-06T23:15:14.325Z,61.27
2019-04-06T23:17:44.239Z,63.57
2019-04-06T23:20:14.037Z,59.80
2019-04-06T23:22:43.674Z,57.33
2019-04-06T23:25:13.436Z,54.83
2019-04-06T23:27:43.059Z,100.50
2019-04-06T23:30:12.343Z,85.90
2019-04-06T23:32:41.474Z,69.77
2019-04-06T23:35:10.617Z,58.70
2019-04-06T23:37:40.368Z,52.80
2019-04-06T23:40:10.281Z,57.33
2019-04-06T23:42:40.470Z,54.77
2019-04-06T23:45:10.357Z,53.60
2019-04-06T23:47:40.097Z,54.07
2019-04-06T23:50:11.124Z,60.63
2019-04-06T23:52:41.014Z,56.90
2019-04-06T23:55:11.887Z,54.70
2019-04-06T23:57:41.745Z,59.10
